Stewarton, United Kingdom
Current Conditions -  °F | °C
As of 6:20 AM on Wednesday 28 Jan 2015 (Local Time) from EGPK Reporting Station
Light Rain Light Rain  
Wind Chill: 32°   Ceiling: 2000
Heat Index: 43°   Visibility: 5mi
Dew Point: 37°   Wind: 30mph
Humidity: 81%   Direction: 260°W
Pressure: 29.29"   Gusts: 41mph
Location:  55.67°N, 4.5°W
Report Text: EGPK 280620Z 26026G36KT 8000 -RA SCT003 BKN020 06/03 Q0992
Loading
Personal Weather Stations






























Interactive Weather Map New forecast layout! Learn more

10-Day Weather Forecast

Advertisements
Track Severe Weather on mobile